createdAt,value
2023-05-06T00:01:24.479Z,101363.31
2023-05-06T00:03:52.150Z,101371.44
2023-05-06T00:06:19.341Z,101363.19
2023-05-06T00:08:46.729Z,101372.13
2023-05-06T00:11:13.898Z,101363.03
2023-05-06T00:13:41.531Z,101363.63
2023-05-06T00:16:08.733Z,101362.75
2023-05-06T00:18:35.925Z,101364.47
2023-05-06T00:21:02.908Z,101362.88
2023-05-06T00:23:29.846Z,101363.44
2023-05-06T00:25:56.847Z,101362.22
2023-05-06T00:28:23.879Z,101365.78
2023-05-06T00:30:50.815Z,101352.41
2023-05-06T00:33:17.768Z,101348.09
2023-05-06T00:35:44.676Z,101358.53
2023-05-06T00:38:15.258Z,101353.38
2023-05-06T00:40:42.369Z,101348.16
2023-05-06T00:43:09.443Z,101346.13
2023-05-06T00:45:36.830Z,101343.56
2023-05-06T00:48:05.764Z,101347.75
2023-05-06T00:50:34.850Z,101345.56
2023-05-06T00:53:04.244Z,101349.31
2023-05-06T00:55:31.718Z,101347.22
2023-05-06T00:57:59.179Z,101352.53
2023-05-06T01:00:26.457Z,101353.63
2023-05-06T01:02:53.744Z,101357.94
2023-05-06T01:05:23.058Z,101349.34
2023-05-06T01:08:07.433Z,101333.69
2023-05-06T01:10:53.614Z,101344.09
2023-05-06T01:14:11.480Z,101332.75
2023-05-06T01:16:41.529Z,101338.94
2023-05-06T01:19:18.648Z,101336.50
2023-05-06T01:21:47.992Z,101333.84
2023-05-06T01:24:15.004Z,101331.19
2023-05-06T01:26:44.049Z,101330.91
2023-05-06T01:29:12.214Z,101333.94
2023-05-06T01:31:48.727Z,101320.78
2023-05-06T01:34:28.322Z,101319.47
2023-05-06T01:37:22.685Z,101319.50
2023-05-06T01:39:50.286Z,101315.88
2023-05-06T01:42:18.052Z,101314.00
2023-05-06T01:44:45.620Z,101325.81
2023-05-06T01:47:13.888Z,101313.69
2023-05-06T01:49:41.115Z,101315.91
2023-05-06T01:52:08.224Z,101316.94
2023-05-06T01:54:35.229Z,101319.38
2023-05-06T01:57:02.838Z,101323.88
2023-05-06T01:59:29.935Z,101323.28
2023-05-06T02:01:57.328Z,101324.91
2023-05-06T02:04:24.414Z,101318.84
2023-05-06T02:06:51.494Z,101330.13
2023-05-06T02:09:18.447Z,101320.91
2023-05-06T02:11:46.200Z,101327.94
2023-05-06T02:14:13.569Z,101330.00
2023-05-06T02:16:40.604Z,101340.59
2023-05-06T02:19:07.631Z,101337.22
2023-05-06T02:21:34.612Z,101318.34
2023-05-06T02:24:01.578Z,101334.63
2023-05-06T02:26:28.531Z,101331.56
2023-05-06T02:28:55.566Z,101329.34
2023-05-06T02:31:22.725Z,101335.25
2023-05-06T02:33:50.511Z,101340.31
2023-05-06T02:36:17.577Z,101333.88
2023-05-06T02:38:44.495Z,101339.56
2023-05-06T02:41:11.405Z,101342.81
2023-05-06T02:43:38.426Z,101333.16
2023-05-06T02:46:05.466Z,101339.53
2023-05-06T02:48:32.483Z,101332.44
2023-05-06T02:51:00.000Z,101348.75
2023-05-06T02:53:26.975Z,101340.53
2023-05-06T02:55:53.939Z,101336.38
2023-05-06T02:58:20.897Z,101328.81
2023-05-06T03:00:47.848Z,101331.66
2023-05-06T03:03:14.961Z,101342.41
2023-05-06T03:05:41.942Z,101330.31
2023-05-06T03:08:08.981Z,101325.47
2023-05-06T03:10:36.043Z,101330.63
2023-05-06T03:13:03.317Z,101327.59
2023-05-06T03:15:30.443Z,101340.63
2023-05-06T03:17:57.419Z,101342.41
2023-05-06T03:20:24.460Z,101337.66
2023-05-06T03:22:51.681Z,101334.88
2023-05-06T03:25:18.582Z,101339.88
2023-05-06T03:27:45.572Z,101342.31
2023-05-06T03:30:13.135Z,101340.84
2023-05-06T03:32:40.233Z,101337.41
2023-05-06T03:35:08.651Z,101336.81
2023-05-06T03:37:35.913Z,101322.78
2023-05-06T03:40:04.539Z,101338.28
2023-05-06T03:42:31.799Z,101339.53
2023-05-06T03:44:58.699Z,101339.25
2023-05-06T03:47:25.709Z,101356.69
2023-05-06T03:49:52.680Z,101345.69
2023-05-06T03:52:19.793Z,101350.78
2023-05-06T03:54:46.697Z,101344.00
2023-05-06T03:57:13.797Z,101331.22
2023-05-06T03:59:40.708Z,101339.16
2023-05-06T04:02:07.831Z,101341.28
2023-05-06T04:04:34.794Z,101350.78
2023-05-06T04:07:02.065Z,101346.94
2023-05-06T04:09:28.971Z,101334.25
2023-05-06T04:11:56.025Z,101339.28
2023-05-06T04:14:23.074Z,101335.56
2023-05-06T04:16:50.080Z,101342.84
2023-05-06T04:19:17.926Z,101348.19
2023-05-06T04:21:44.878Z,101339.56
2023-05-06T04:24:11.812Z,101342.03
2023-05-06T04:26:38.791Z,101339.28
2023-05-06T04:29:05.814Z,101341.09
2023-05-06T04:31:33.206Z,101345.19
2023-05-06T04:34:00.865Z,101341.78
2023-05-06T04:36:28.452Z,101346.16
2023-05-06T04:38:55.400Z,101347.84
2023-05-06T04:41:23.810Z,101360.72
2023-05-06T04:43:50.749Z,101356.06
2023-05-06T04:46:17.722Z,101364.75
2023-05-06T04:48:44.663Z,101363.41
2023-05-06T04:51:11.623Z,101362.94
2023-05-06T04:53:38.565Z,101351.03
2023-05-06T04:56:05.856Z,101353.22
2023-05-06T04:58:32.840Z,101352.78
2023-05-06T05:01:06.510Z,101358.63
2023-05-06T05:03:33.620Z,101350.16
2023-05-06T05:06:00.644Z,101352.31
2023-05-06T05:08:27.637Z,101363.56
2023-05-06T05:10:54.589Z,101361.63
2023-05-06T05:13:21.647Z,101357.50
2023-05-06T05:15:48.576Z,101363.78
2023-05-06T05:18:15.541Z,101375.34
2023-05-06T05:20:42.510Z,101363.88
2023-05-06T05:23:09.463Z,101360.72
2023-05-06T05:25:36.496Z,101369.34
2023-05-06T05:28:04.041Z,101373.16
2023-05-06T05:30:31.000Z,101370.28
2023-05-06T05:32:57.988Z,101371.16
2023-05-06T05:35:25.063Z,101371.72
2023-05-06T05:37:52.000Z,101371.06
2023-05-06T05:40:18.970Z,101376.72
2023-05-06T05:42:46.109Z,101376.59
2023-05-06T05:45:13.084Z,101365.03
2023-05-06T05:47:40.086Z,101371.03
2023-05-06T05:50:08.145Z,101378.75
2023-05-06T05:52:35.125Z,101378.13
2023-05-06T05:55:02.085Z,101380.97
2023-05-06T05:57:29.163Z,101382.03
2023-05-06T05:59:56.305Z,101391.28
2023-05-06T06:02:23.673Z,101398.56
2023-05-06T06:04:50.765Z,101396.34
2023-05-06T06:07:17.984Z,101394.28
2023-05-06T06:09:46.843Z,101379.13
2023-05-06T06:12:14.237Z,101391.41
2023-05-06T06:14:41.378Z,101396.75
2023-05-06T06:17:08.368Z,101392.47
2023-05-06T06:19:35.666Z,101385.28
2023-05-06T06:22:02.637Z,101391.03
2023-05-06T06:24:29.589Z,101390.59
2023-05-06T06:26:56.572Z,101388.13
2023-05-06T06:29:23.504Z,101382.81
2023-05-06T06:31:50.495Z,101381.75
2023-05-06T06:34:20.158Z,101386.56
2023-05-06T06:36:47.180Z,101389.00
2023-05-06T06:39:14.447Z,101389.34
2023-05-06T06:41:41.776Z,101390.03
2023-05-06T06:44:08.776Z,101385.81
2023-05-06T06:46:35.703Z,101388.66
2023-05-06T06:49:02.725Z,101388.94
2023-05-06T06:51:29.755Z,101379.78
2023-05-06T06:53:56.902Z,101390.59
2023-05-06T06:56:23.959Z,101392.16
2023-05-06T06:58:53.033Z,101395.19
2023-05-06T07:01:20.522Z,101389.78
2023-05-06T07:03:47.539Z,101391.47
2023-05-06T07:06:14.530Z,101399.91
2023-05-06T07:08:41.535Z,101400.09
2023-05-06T07:11:08.454Z,101402.78
2023-05-06T07:13:36.602Z,101397.25
2023-05-06T07:16:03.752Z,101408.34
2023-05-06T07:18:30.751Z,101413.59
2023-05-06T07:20:57.819Z,101402.22
2023-05-06T07:23:24.806Z,101410.81
2023-05-06T07:25:51.745Z,101408.69
2023-05-06T07:28:18.737Z,101409.09
2023-05-06T07:30:46.080Z,101409.19
2023-05-06T07:33:13.068Z,101410.91
2023-05-06T07:35:40.010Z,101415.00
2023-05-06T07:38:06.901Z,101407.91
2023-05-06T07:40:34.104Z,101404.16
2023-05-06T07:43:02.968Z,101396.28
2023-05-06T07:45:29.900Z,101402.28
2023-05-06T07:47:57.255Z,101414.00
2023-05-06T07:50:24.282Z,101406.91
2023-05-06T07:52:51.255Z,101405.88
2023-05-06T07:55:18.185Z,101398.41
2023-05-06T07:57:45.100Z,101403.94
2023-05-06T08:00:12.912Z,101413.78
2023-05-06T08:02:44.321Z,101414.97
2023-05-06T08:05:11.811Z,101421.13
2023-05-06T08:07:41.783Z,101416.72
2023-05-06T08:10:09.942Z,101416.25
2023-05-06T08:12:38.220Z,101412.50
2023-05-06T08:15:06.396Z,101401.56
2023-05-06T08:17:33.362Z,101411.84
2023-05-06T08:20:00.448Z,101404.75
2023-05-06T08:22:27.370Z,101405.03
2023-05-06T08:24:55.114Z,101398.59
2023-05-06T08:27:22.054Z,101408.19
2023-05-06T08:29:48.986Z,101399.22
2023-05-06T08:32:16.128Z,101404.44
2023-05-06T08:34:43.029Z,101402.66
2023-05-06T08:37:10.474Z,101399.28
2023-05-06T08:39:37.781Z,101394.47
2023-05-06T08:42:05.952Z,101402.91
2023-05-06T08:44:33.685Z,101400.59
2023-05-06T08:47:00.737Z,101400.47
2023-05-06T08:49:27.938Z,101398.78
2023-05-06T08:51:55.424Z,101388.50
2023-05-06T08:54:26.639Z,101398.66
2023-05-06T08:56:54.737Z,101398.03
2023-05-06T08:59:25.991Z,101393.19
2023-05-06T09:01:53.505Z,101408.59
2023-05-06T09:04:20.773Z,101402.59
2023-05-06T09:06:47.797Z,101404.53
2023-05-06T09:09:15.056Z,101398.78
2023-05-06T09:11:42.132Z,101397.03
2023-05-06T09:14:16.709Z,101387.28
2023-05-06T09:16:46.887Z,101386.50
2023-05-06T09:19:16.276Z,101391.34
2023-05-06T09:21:49.297Z,101390.03
2023-05-06T09:24:17.691Z,101388.22
2023-05-06T09:26:46.119Z,101385.66
2023-05-06T09:29:13.693Z,101387.53
2023-05-06T09:31:46.109Z,101394.41
2023-05-06T09:34:15.009Z,101391.72
2023-05-06T09:36:42.013Z,101384.88
2023-05-06T09:39:09.993Z,101384.69
2023-05-06T09:41:37.618Z,101377.25
2023-05-06T09:44:05.693Z,101383.16
2023-05-06T09:46:33.097Z,101376.25
2023-05-06T09:49:00.597Z,101372.44
2023-05-06T09:51:30.994Z,101368.22
2023-05-06T09:53:59.434Z,101373.19
2023-05-06T09:56:27.097Z,101356.28
2023-05-06T09:58:56.157Z,101356.53
2023-05-06T10:01:35.471Z,101363.69
2023-05-06T10:04:09.789Z,101367.66
2023-05-06T10:06:40.592Z,101362.84
2023-05-06T10:09:09.313Z,101359.53
2023-05-06T10:11:36.992Z,101360.53
2023-05-06T10:14:05.153Z,101353.25
2023-05-06T10:16:37.870Z,101352.31
2023-05-06T10:19:08.040Z,101356.91
2023-05-06T10:21:39.666Z,101347.34
2023-05-06T10:24:11.779Z,101350.31
2023-05-06T10:26:40.990Z,101345.88
2023-05-06T10:29:11.181Z,101354.16
2023-05-06T10:31:49.635Z,101342.50
2023-05-06T10:34:19.945Z,101352.28
2023-05-06T10:36:50.451Z,101334.41
2023-05-06T10:39:17.767Z,101339.66
2023-05-06T10:41:44.786Z,101331.84
2023-05-06T10:44:12.908Z,101344.41
2023-05-06T10:47:00.803Z,101336.78
2023-05-06T10:49:27.954Z,101341.22
2023-05-06T10:52:21.056Z,101334.81
2023-05-06T10:54:50.931Z,101329.19
2023-05-06T10:57:18.440Z,101320.03
2023-05-06T10:59:47.863Z,101326.81
2023-05-06T11:02:19.894Z,101316.47
2023-05-06T11:05:01.851Z,101329.16
2023-05-06T11:07:28.861Z,101322.53
2023-05-06T11:10:08.175Z,101319.66
2023-05-06T11:12:46.222Z,101318.69
2023-05-06T11:15:39.531Z,101310.41
2023-05-06T11:18:24.735Z,101310.09
2023-05-06T11:21:34.944Z,101315.84
2023-05-06T11:24:01.790Z,101308.75
2023-05-06T11:26:28.692Z,101310.06
2023-05-06T11:28:56.024Z,101308.94
2023-05-06T11:31:23.188Z,101314.78
2023-05-06T11:33:55.101Z,101310.13
2023-05-06T11:36:22.146Z,101309.03
2023-05-06T11:38:52.568Z,101320.81
2023-05-06T11:41:21.934Z,101314.84
2023-05-06T11:43:50.658Z,101314.50
2023-05-06T11:46:22.940Z,101313.72
2023-05-06T11:48:50.843Z,101319.94
2023-05-06T11:51:24.806Z,101323.53
2023-05-06T11:53:54.131Z,101321.25
2023-05-06T11:56:21.176Z,101316.13
2023-05-06T11:58:48.303Z,101315.50
2023-05-06T12:01:15.364Z,101311.47
2023-05-06T12:03:42.481Z,101314.63
2023-05-06T12:06:09.650Z,101306.50
2023-05-06T12:08:37.529Z,101308.00
2023-05-06T12:11:08.217Z,101317.81
2023-05-06T12:13:36.982Z,101321.41
2023-05-06T12:16:06.026Z,101321.97
2023-05-06T12:18:33.322Z,101303.78
2023-05-06T12:21:06.000Z,101312.44
2023-05-06T12:23:33.241Z,101304.53
2023-05-06T12:26:06.224Z,101313.81
2023-05-06T12:28:36.223Z,101311.69
2023-05-06T12:31:22.870Z,101312.53
2023-05-06T12:33:50.702Z,101311.72
2023-05-06T12:36:18.851Z,101315.91
2023-05-06T12:38:57.448Z,101313.38
2023-05-06T12:41:37.211Z,101321.84
2023-05-06T12:44:37.729Z,101317.88
2023-05-06T12:47:26.783Z,101325.22
2023-05-06T12:49:59.290Z,101326.53
2023-05-06T12:52:29.624Z,101323.06
2023-05-06T12:54:57.660Z,101331.25
2023-05-06T12:57:24.735Z,101323.72
2023-05-06T12:59:51.701Z,101316.66
2023-05-06T13:02:19.128Z,101306.78
2023-05-06T13:04:47.131Z,101310.34
2023-05-06T13:07:14.187Z,101315.34
2023-05-06T13:09:41.189Z,101319.03
2023-05-06T13:12:08.252Z,101304.28
2023-05-06T13:14:36.846Z,101317.41
2023-05-06T13:17:06.761Z,101312.66
2023-05-06T13:19:34.277Z,101314.97
2023-05-06T13:22:01.855Z,101315.78
2023-05-06T13:24:29.856Z,101321.97
2023-05-06T13:26:57.290Z,101322.66
2023-05-06T13:29:24.684Z,101320.50
2023-05-06T13:31:51.837Z,101328.63
2023-05-06T13:34:19.005Z,101322.16
2023-05-06T13:36:46.852Z,101316.91
2023-05-06T13:39:13.901Z,101315.31
2023-05-06T13:41:40.977Z,101322.75
2023-05-06T13:44:07.982Z,101321.19
2023-05-06T13:46:35.012Z,101322.91
2023-05-06T13:49:01.997Z,101319.50
2023-05-06T13:51:32.623Z,101316.13
2023-05-06T13:53:59.541Z,101312.34
2023-05-06T13:56:26.947Z,101315.47
2023-05-06T13:58:54.135Z,101313.03
2023-05-06T14:01:21.933Z,101318.34
2023-05-06T14:03:49.115Z,101306.59
2023-05-06T14:06:16.360Z,101303.72
2023-05-06T14:08:43.537Z,101309.47
2023-05-06T14:11:10.553Z,101306.59
2023-05-06T14:13:39.050Z,101296.47
2023-05-06T14:16:06.510Z,101297.88
2023-05-06T14:18:33.904Z,101306.13
2023-05-06T14:21:00.944Z,101303.16
2023-05-06T14:23:27.916Z,101302.78
2023-05-06T14:25:54.878Z,101304.69
2023-05-06T14:28:21.864Z,101303.31
2023-05-06T14:30:50.859Z,101302.34
2023-05-06T14:33:17.782Z,101304.91
2023-05-06T14:35:46.119Z,101290.13
2023-05-06T14:38:13.196Z,101288.50
2023-05-06T14:40:40.272Z,101291.53
2023-05-06T14:43:07.927Z,101288.50
2023-05-06T14:45:35.465Z,101289.09
2023-05-06T14:48:04.145Z,101295.56
2023-05-06T14:50:31.413Z,101297.03
2023-05-06T14:52:58.437Z,101294.84
2023-05-06T14:55:25.903Z,101288.44
2023-05-06T14:57:53.028Z,101299.59
2023-05-06T15:00:20.610Z,101296.19
2023-05-06T15:02:47.723Z,101290.94
2023-05-06T15:05:15.141Z,101302.88
2023-05-06T15:07:42.359Z,101297.44
2023-05-06T15:10:09.747Z,101289.75
2023-05-06T15:12:39.436Z,101291.25
2023-05-06T15:15:07.809Z,101285.28
2023-05-06T15:17:34.831Z,101290.47
2023-05-06T15:20:01.991Z,101290.03
2023-05-06T15:22:29.007Z,101299.91
2023-05-06T15:24:56.060Z,101290.03
2023-05-06T15:27:23.123Z,101296.00
2023-05-06T15:29:50.218Z,101288.31
2023-05-06T15:32:17.153Z,101283.28
2023-05-06T15:34:44.123Z,101282.19
2023-05-06T15:37:11.174Z,101286.88
2023-05-06T15:39:38.295Z,101288.97
2023-05-06T15:42:05.610Z,101278.91
2023-05-06T15:44:33.946Z,101282.66
2023-05-06T15:47:01.172Z,101284.28
2023-05-06T15:52:00.768Z,101283.38
2023-05-06T15:54:28.994Z,101287.97
2023-05-06T15:56:56.811Z,101279.41
2023-05-06T15:59:24.000Z,101283.47
2023-05-06T16:02:25.329Z,101292.59
2023-05-06T16:04:38.100Z,101290.09
2023-05-06T16:07:05.268Z,101280.91
2023-05-06T16:09:32.172Z,101291.28
2023-05-06T16:11:59.159Z,101292.53
2023-05-06T16:14:26.201Z,101279.78
2023-05-06T16:16:53.325Z,101287.97
2023-05-06T16:19:20.345Z,101289.22
2023-05-06T16:21:48.358Z,101288.97
2023-05-06T16:24:16.032Z,101290.44
2023-05-06T16:26:42.954Z,101289.38
2023-05-06T16:29:10.249Z,101284.34
2023-05-06T16:31:37.788Z,101278.88
2023-05-06T16:34:05.012Z,101280.97
2023-05-06T16:36:32.024Z,101280.28
2023-05-06T16:38:58.981Z,101273.75
2023-05-06T16:41:25.972Z,101279.50
2023-05-06T16:43:52.962Z,101279.94
2023-05-06T16:46:21.376Z,101280.09
2023-05-06T16:48:50.013Z,101280.63
2023-05-06T16:51:17.098Z,101274.56
2023-05-06T16:53:44.066Z,101269.41
2023-05-06T16:56:11.149Z,101269.03
2023-05-06T16:58:38.176Z,101265.09
2023-05-06T17:01:08.085Z,101267.28
2023-05-06T17:03:38.562Z,101259.31
2023-05-06T17:06:05.870Z,101256.44
2023-05-06T17:08:36.271Z,101270.25
2023-05-06T17:11:06.936Z,101268.78
2023-05-06T17:13:34.700Z,101271.44
2023-05-06T17:16:01.769Z,101276.94
2023-05-06T17:18:28.813Z,101272.03
2023-05-06T17:20:57.161Z,101272.78
2023-05-06T17:23:24.819Z,101268.91
2023-05-06T17:25:52.069Z,101269.88
2023-05-06T17:28:19.201Z,101268.69
2023-05-06T17:30:46.682Z,101268.22
2023-05-06T17:33:13.898Z,101259.56
2023-05-06T17:35:40.876Z,101258.56
2023-05-06T17:38:09.555Z,101264.38
2023-05-06T17:40:36.480Z,101263.84
2023-05-06T17:43:03.665Z,101265.06
2023-05-06T17:45:30.897Z,101271.28
2023-05-06T17:47:57.934Z,101269.28
2023-05-06T17:50:24.994Z,101266.56
2023-05-06T17:52:54.464Z,101259.75
2023-05-06T17:55:21.981Z,101269.91
2023-05-06T17:57:50.277Z,101263.84
2023-05-06T18:00:17.549Z,101264.75
2023-05-06T18:02:45.302Z,101261.84
2023-05-06T18:05:13.521Z,101258.69
2023-05-06T18:07:41.035Z,101256.44
2023-05-06T18:10:08.938Z,101254.66
2023-05-06T18:12:36.045Z,101252.72
2023-05-06T18:15:03.282Z,101254.50
2023-05-06T18:17:30.333Z,101265.06
2023-05-06T18:19:57.316Z,101258.00
2023-05-06T18:22:24.434Z,101258.69
2023-05-06T18:24:55.340Z,101261.47
2023-05-06T18:27:23.112Z,101263.34
2023-05-06T18:29:50.154Z,101250.34
2023-05-06T18:32:20.064Z,101246.25
2023-05-06T18:34:47.009Z,101254.00
2023-05-06T18:37:13.970Z,101248.59
2023-05-06T18:39:42.632Z,101256.88
2023-05-06T18:42:09.926Z,101243.09
2023-05-06T18:44:37.479Z,101253.50
2023-05-06T18:47:04.615Z,101255.72
2023-05-06T18:49:31.738Z,101248.56
2023-05-06T18:51:58.930Z,101256.88
2023-05-06T18:54:25.963Z,101248.31
2023-05-06T18:56:52.963Z,101250.41
2023-05-06T18:59:20.277Z,101250.94
2023-05-06T19:01:47.336Z,101259.38
2023-05-06T19:04:14.771Z,101264.47
2023-05-06T19:06:42.209Z,101266.00
2023-05-06T19:09:09.204Z,101261.88
2023-05-06T19:11:36.194Z,101263.34
2023-05-06T19:14:03.599Z,101259.84
2023-05-06T19:16:30.587Z,101256.03
2023-05-06T19:18:57.593Z,101245.75
2023-05-06T19:21:24.655Z,101250.41
2023-05-06T19:23:53.132Z,101251.31
2023-05-06T19:26:20.135Z,101251.06
2023-05-06T19:28:47.099Z,101253.19
2023-05-06T19:31:14.134Z,101253.78
2023-05-06T19:33:43.078Z,101254.22
2023-05-06T19:36:10.958Z,101249.75
2023-05-06T19:38:38.386Z,101248.31
2023-05-06T19:41:06.176Z,101257.41
2023-05-06T19:43:33.270Z,101253.03
2023-05-06T19:46:00.451Z,101255.13
2023-05-06T19:48:27.449Z,101255.03
2023-05-06T19:50:54.508Z,101245.22
2023-05-06T19:53:22.863Z,101249.88
2023-05-06T19:55:50.029Z,101252.34
2023-05-06T19:58:18.880Z,101251.22
2023-05-06T20:00:45.902Z,101255.75
2023-05-06T20:03:13.078Z,101260.66
2023-05-06T20:05:40.147Z,101266.25
2023-05-06T20:08:10.944Z,101260.09
2023-05-06T20:10:38.723Z,101262.88
2023-05-06T20:13:07.020Z,101276.59
2023-05-06T20:15:35.462Z,101266.34
2023-05-06T20:18:02.499Z,101269.16
2023-05-06T20:20:34.493Z,101262.63
2023-05-06T20:23:02.375Z,101256.31
2023-05-06T20:25:30.257Z,101268.91
2023-05-06T20:27:58.406Z,101262.41
2023-05-06T20:30:26.803Z,101272.81
2023-05-06T20:32:54.032Z,101270.31
2023-05-06T20:35:21.231Z,101266.09
2023-05-06T20:37:48.208Z,101262.75
2023-05-06T20:40:15.296Z,101252.97
2023-05-06T20:42:42.316Z,101257.84
2023-05-06T20:45:09.904Z,101264.97
2023-05-06T20:47:37.197Z,101271.59
2023-05-06T20:50:04.795Z,101268.47
2023-05-06T20:52:33.942Z,101272.34
2023-05-06T20:55:01.701Z,101272.19
2023-05-06T20:57:28.709Z,101269.03
2023-05-06T20:59:56.154Z,101268.91
2023-05-06T21:02:23.210Z,101272.84
2023-05-06T21:04:50.972Z,101270.47
2023-05-06T21:07:18.093Z,101269.94
2023-05-06T21:09:45.747Z,101274.66
2023-05-06T21:12:12.858Z,101271.13
2023-05-06T21:14:39.909Z,101279.13
2023-05-06T21:17:08.411Z,101282.31
2023-05-06T21:19:35.689Z,101276.56
2023-05-06T21:22:02.902Z,101270.31
2023-05-06T21:24:31.025Z,101268.97
2023-05-06T21:26:58.352Z,101268.09
2023-05-06T21:29:25.480Z,101275.97
2023-05-06T21:31:52.398Z,101265.91
2023-05-06T21:34:19.415Z,101258.91
2023-05-06T21:36:46.376Z,101259.44
2023-05-06T21:39:14.475Z,101259.44
2023-05-06T21:41:41.707Z,101265.75
2023-05-06T21:44:09.395Z,101264.75
2023-05-06T21:46:37.795Z,101272.28
2023-05-06T21:49:05.210Z,101270.16
2023-05-06T21:51:34.969Z,101272.13
2023-05-06T21:54:02.959Z,101266.97
2023-05-06T21:56:30.087Z,101274.22
2023-05-06T21:58:57.021Z,101268.16
2023-05-06T22:01:29.183Z,101274.66
2023-05-06T22:03:56.535Z,101277.25
2023-05-06T22:06:23.820Z,101276.84
2023-05-06T22:08:51.424Z,101282.81
2023-05-06T22:11:18.534Z,101273.84
2023-05-06T22:13:45.689Z,101281.53
2023-05-06T22:16:13.170Z,101280.09
2023-05-06T22:18:41.581Z,101277.19
2023-05-06T22:21:09.674Z,101277.63
2023-05-06T22:23:36.953Z,101281.22
2023-05-06T22:26:04.252Z,101271.72
2023-05-06T22:28:31.245Z,101278.31
2023-05-06T22:30:58.213Z,101280.16
2023-05-06T22:33:27.062Z,101273.94
2023-05-06T22:35:55.384Z,101280.28
2023-05-06T22:38:22.373Z,101272.84
2023-05-06T22:40:49.464Z,101275.22
2023-05-06T22:43:16.409Z,101271.88
2023-05-06T22:45:43.529Z,101276.56
2023-05-06T22:48:11.005Z,101280.34
2023-05-06T22:50:38.178Z,101280.06
2023-05-06T22:53:14.501Z,101286.44
2023-05-06T22:55:42.894Z,101290.88
2023-05-06T22:58:09.968Z,101294.09
2023-05-06T23:00:37.266Z,101289.34
2023-05-06T23:03:05.322Z,101284.19
2023-05-06T23:05:32.278Z,101288.84
2023-05-06T23:07:59.235Z,101301.72
2023-05-06T23:10:26.819Z,101303.66
2023-05-06T23:12:53.817Z,101307.16
2023-05-06T23:15:20.910Z,101291.41
2023-05-06T23:17:47.930Z,101313.00
2023-05-06T23:20:17.223Z,101304.75
2023-05-06T23:22:44.183Z,101304.13
2023-05-06T23:25:12.093Z,101303.72
2023-05-06T23:27:40.607Z,101304.75
2023-05-06T23:30:09.184Z,101305.97
2023-05-06T23:32:37.291Z,101311.66
2023-05-06T23:35:04.898Z,101294.31
2023-05-06T23:37:31.849Z,101304.78
2023-05-06T23:39:58.802Z,101298.22
2023-05-06T23:42:26.297Z,101293.47
2023-05-06T23:44:53.612Z,101291.28
2023-05-06T23:47:20.692Z,101282.31
2023-05-06T23:49:47.648Z,101290.16
2023-05-06T23:52:14.637Z,101285.41
2023-05-06T23:54:41.650Z,101289.44
2023-05-06T23:57:08.625Z,101286.41
2023-05-06T23:59:35.728Z,101280.38
